sensor_id;sensor_type;location;lat;lon;timestamp;P1;durP1;ratioP1;P2;durP2;ratioP2
78787;SDS011;68131;52.508;5.502;2023-07-30T00:01:45;3.75;;;0.77;;
78787;SDS011;68131;52.508;5.502;2023-07-30T00:04:14;7.00;;;1.05;;
78787;SDS011;68131;52.508;5.502;2023-07-30T00:06:45;5.03;;;0.77;;
78787;SDS011;68131;52.508;5.502;2023-07-30T00:09:14;4.20;;;1.13;;
78787;SDS011;68131;52.508;5.502;2023-07-30T00:11:43;4.18;;;1.02;;
78787;SDS011;68131;52.508;5.502;2023-07-30T00:14:15;3.58;;;0.93;;
78787;SDS011;68131;52.508;5.502;2023-07-30T00:16:44;1.60;;;0.40;;
78787;SDS011;68131;52.508;5.502;2023-07-30T00:19:13;5.05;;;0.68;;
78787;SDS011;68131;52.508;5.502;2023-07-30T00:21:43;5.90;;;1.35;;
78787;SDS011;68131;52.508;5.502;2023-07-30T00:24:13;5.30;;;1.08;;
78787;SDS011;68131;52.508;5.502;2023-07-30T00:26:42;5.70;;;1.50;;
78787;SDS011;68131;52.508;5.502;2023-07-30T00:29:16;5.55;;;0.70;;
78787;SDS011;68131;52.508;5.502;2023-07-30T00:31:45;2.53;;;1.15;;
78787;SDS011;68131;52.508;5.502;2023-07-30T00:34:14;4.72;;;0.75;;
78787;SDS011;68131;52.508;5.502;2023-07-30T00:36:44;4.53;;;0.80;;
78787;SDS011;68131;52.508;5.502;2023-07-30T00:39:13;4.13;;;0.57;;
78787;SDS011;68131;52.508;5.502;2023-07-30T00:41:42;5.13;;;1.38;;
78787;SDS011;68131;52.508;5.502;2023-07-30T00:44:17;4.30;;;0.73;;
78787;SDS011;68131;52.508;5.502;2023-07-30T00:46:48;7.47;;;1.08;;
78787;SDS011;68131;52.508;5.502;2023-07-30T00:49:18;3.83;;;0.50;;
78787;SDS011;68131;52.508;5.502;2023-07-30T00:51:48;3.80;;;1.02;;
78787;SDS011;68131;52.508;5.502;2023-07-30T00:54:17;3.25;;;0.60;;
78787;SDS011;68131;52.508;5.502;2023-07-30T00:56:48;1.95;;;0.95;;
78787;SDS011;68131;52.508;5.502;2023-07-30T00:59:22;3.17;;;1.40;;
78787;SDS011;68131;52.508;5.502;2023-07-30T01:01:52;3.30;;;0.85;;
78787;SDS011;68131;52.508;5.502;2023-07-30T01:04:24;4.00;;;1.20;;
78787;SDS011;68131;52.508;5.502;2023-07-30T01:06:54;3.63;;;1.45;;
78787;SDS011;68131;52.508;5.502;2023-07-30T01:09:35;3.10;;;1.30;;
78787;SDS011;68131;52.508;5.502;2023-07-30T01:12:05;2.35;;;0.65;;
78787;SDS011;68131;52.508;5.502;2023-07-30T01:14:38;1.77;;;0.80;;
78787;SDS011;68131;52.508;5.502;2023-07-30T01:17:08;3.88;;;0.90;;
78787;SDS011;68131;52.508;5.502;2023-07-30T01:19:38;7.53;;;1.70;;
78787;SDS011;68131;52.508;5.502;2023-07-30T01:22:09;7.68;;;1.40;;
78787;SDS011;68131;52.508;5.502;2023-07-30T01:24:39;8.55;;;1.30;;
78787;SDS011;68131;52.508;5.502;2023-07-30T01:27:11;4.75;;;1.48;;
78787;SDS011;68131;52.508;5.502;2023-07-30T01:29:47;1.85;;;0.60;;
78787;SDS011;68131;52.508;5.502;2023-07-30T01:32:20;4.65;;;1.20;;
78787;SDS011;68131;52.508;5.502;2023-07-30T01:34:54;3.17;;;0.80;;
78787;SDS011;68131;52.508;5.502;2023-07-30T01:37:28;3.25;;;0.68;;
78787;SDS011;68131;52.508;5.502;2023-07-30T01:39:59;4.82;;;0.65;;
78787;SDS011;68131;52.508;5.502;2023-07-30T01:42:29;3.17;;;1.08;;
78787;SDS011;68131;52.508;5.502;2023-07-30T01:44:59;1.83;;;0.80;;
78787;SDS011;68131;52.508;5.502;2023-07-30T01:47:28;5.55;;;1.02;;
78787;SDS011;68131;52.508;5.502;2023-07-30T01:49:57;4.00;;;0.80;;
78787;SDS011;68131;52.508;5.502;2023-07-30T01:52:29;4.75;;;0.95;;
78787;SDS011;68131;52.508;5.502;2023-07-30T01:54:58;2.40;;;0.68;;
78787;SDS011;68131;52.508;5.502;2023-07-30T01:57:28;9.25;;;1.75;;
78787;SDS011;68131;52.508;5.502;2023-07-30T01:59:58;3.75;;;1.10;;
78787;SDS011;68131;52.508;5.502;2023-07-30T02:02:28;2.10;;;0.88;;
78787;SDS011;68131;52.508;5.502;2023-07-30T02:04:58;1.88;;;0.75;;
78787;SDS011;68131;52.508;5.502;2023-07-30T02:07:29;6.82;;;1.25;;
78787;SDS011;68131;52.508;5.502;2023-07-30T02:09:59;4.05;;;0.90;;
78787;SDS011;68131;52.508;5.502;2023-07-30T02:12:28;5.85;;;1.38;;
78787;SDS011;68131;52.508;5.502;2023-07-30T02:14:57;6.53;;;1.30;;
78787;SDS011;68131;52.508;5.502;2023-07-30T02:17:26;3.03;;;0.88;;
78787;SDS011;68131;52.508;5.502;2023-07-30T02:19:55;3.28;;;0.57;;
78787;SDS011;68131;52.508;5.502;2023-07-30T02:22:25;2.72;;;0.98;;
78787;SDS011;68131;52.508;5.502;2023-07-30T02:25:00;6.47;;;0.90;;
78787;SDS011;68131;52.508;5.502;2023-07-30T02:27:29;1.40;;;0.80;;
78787;SDS011;68131;52.508;5.502;2023-07-30T02:29:58;4.28;;;1.05;;
78787;SDS011;68131;52.508;5.502;2023-07-30T02:32:28;4.57;;;1.00;;
78787;SDS011;68131;52.508;5.502;2023-07-30T02:34:57;8.10;;;1.70;;
78787;SDS011;68131;52.508;5.502;2023-07-30T02:37:27;5.07;;;0.80;;
78787;SDS011;68131;52.508;5.502;2023-07-30T02:39:58;5.03;;;0.88;;
78787;SDS011;68131;52.508;5.502;2023-07-30T02:42:30;3.13;;;0.90;;
78787;SDS011;68131;52.508;5.502;2023-07-30T02:44:59;1.30;;;0.75;;
78787;SDS011;68131;52.508;5.502;2023-07-30T02:47:30;4.85;;;0.77;;
78787;SDS011;68131;52.508;5.502;2023-07-30T02:50:00;5.35;;;0.98;;
78787;SDS011;68131;52.508;5.502;2023-07-30T02:52:29;1.58;;;0.88;;
78787;SDS011;68131;52.508;5.502;2023-07-30T02:55:01;3.17;;;0.90;;
78787;SDS011;68131;52.508;5.502;2023-07-30T02:57:30;7.15;;;1.00;;
78787;SDS011;68131;52.508;5.502;2023-07-30T02:59:59;4.18;;;1.02;;
78787;SDS011;68131;52.508;5.502;2023-07-30T03:02:29;4.22;;;0.93;;
78787;SDS011;68131;52.508;5.502;2023-07-30T03:04:59;5.30;;;0.82;;
78787;SDS011;68131;52.508;5.502;2023-07-30T03:07:28;3.60;;;0.80;;
78787;SDS011;68131;52.508;5.502;2023-07-30T03:09:57;4.93;;;1.35;;
78787;SDS011;68131;52.508;5.502;2023-07-30T03:12:29;5.88;;;1.42;;
78787;SDS011;68131;52.508;5.502;2023-07-30T03:14:58;9.43;;;1.10;;
78787;SDS011;68131;52.508;5.502;2023-07-30T03:17:28;4.57;;;1.00;;
78787;SDS011;68131;52.508;5.502;2023-07-30T03:19:57;3.72;;;1.02;;
78787;SDS011;68131;52.508;5.502;2023-07-30T03:22:27;3.47;;;1.10;;
78787;SDS011;68131;52.508;5.502;2023-07-30T03:24:56;5.22;;;0.90;;
78787;SDS011;68131;52.508;5.502;2023-07-30T03:27:28;2.33;;;0.90;;
78787;SDS011;68131;52.508;5.502;2023-07-30T03:29:57;5.53;;;1.20;;
78787;SDS011;68131;52.508;5.502;2023-07-30T03:32:26;3.08;;;1.05;;
78787;SDS011;68131;52.508;5.502;2023-07-30T03:34:56;4.60;;;1.00;;
78787;SDS011;68131;52.508;5.502;2023-07-30T03:37:25;3.17;;;0.80;;
78787;SDS011;68131;52.508;5.502;2023-07-30T03:39:54;1.45;;;0.90;;
78787;SDS011;68131;52.508;5.502;2023-07-30T03:42:23;2.50;;;1.35;;
78787;SDS011;68131;52.508;5.502;2023-07-30T03:44:55;1.88;;;0.70;;
78787;SDS011;68131;52.508;5.502;2023-07-30T03:47:24;1.92;;;0.75;;
78787;SDS011;68131;52.508;5.502;2023-07-30T03:49:54;1.88;;;0.73;;
78787;SDS011;68131;52.508;5.502;2023-07-30T03:52:23;3.85;;;1.25;;
78787;SDS011;68131;52.508;5.502;2023-07-30T03:54:52;1.67;;;1.02;;
78787;SDS011;68131;52.508;5.502;2023-07-30T03:57:22;5.30;;;0.90;;
78787;SDS011;68131;52.508;5.502;2023-07-30T03:59:51;3.53;;;0.93;;
78787;SDS011;68131;52.508;5.502;2023-07-30T04:02:23;3.25;;;0.93;;
78787;SDS011;68131;52.508;5.502;2023-07-30T04:04:52;2.63;;;1.05;;
78787;SDS011;68131;52.508;5.502;2023-07-30T04:07:21;5.68;;;1.00;;
78787;SDS011;68131;52.508;5.502;2023-07-30T04:09:50;6.13;;;1.00;;
78787;SDS011;68131;52.508;5.502;2023-07-30T04:12:22;2.15;;;1.00;;
78787;SDS011;68131;52.508;5.502;2023-07-30T04:14:52;2.05;;;0.73;;
78787;SDS011;68131;52.508;5.502;2023-07-30T04:17:23;2.88;;;0.88;;
78787;SDS011;68131;52.508;5.502;2023-07-30T04:19:53;4.22;;;0.77;;
78787;SDS011;68131;52.508;5.502;2023-07-30T04:22:22;1.55;;;0.75;;
78787;SDS011;68131;52.508;5.502;2023-07-30T04:24:51;2.72;;;0.70;;
78787;SDS011;68131;52.508;5.502;2023-07-30T04:27:20;3.65;;;1.00;;
78787;SDS011;68131;52.508;5.502;2023-07-30T04:29:49;9.23;;;2.30;;
78787;SDS011;68131;52.508;5.502;2023-07-30T04:32:20;2.83;;;0.90;;
78787;SDS011;68131;52.508;5.502;2023-07-30T04:34:52;9.77;;;0.80;;
78787;SDS011;68131;52.508;5.502;2023-07-30T04:37:21;2.50;;;0.82;;
78787;SDS011;68131;52.508;5.502;2023-07-30T04:39:52;6.80;;;1.13;;
78787;SDS011;68131;52.508;5.502;2023-07-30T04:42:22;1.17;;;0.60;;
78787;SDS011;68131;52.508;5.502;2023-07-30T04:44:51;3.80;;;0.90;;
78787;SDS011;68131;52.508;5.502;2023-07-30T04:47:25;5.00;;;1.13;;
78787;SDS011;68131;52.508;5.502;2023-07-30T04:49:55;12.20;;;1.40;;
78787;SDS011;68131;52.508;5.502;2023-07-30T04:52:24;5.55;;;1.17;;
78787;SDS011;68131;52.508;5.502;2023-07-30T04:54:53;3.33;;;0.85;;
78787;SDS011;68131;52.508;5.502;2023-07-30T04:57:22;2.67;;;1.35;;
78787;SDS011;68131;52.508;5.502;2023-07-30T04:59:52;5.25;;;0.90;;
78787;SDS011;68131;52.508;5.502;2023-07-30T05:02:24;2.58;;;1.02;;
78787;SDS011;68131;52.508;5.502;2023-07-30T05:04:55;8.20;;;1.30;;
78787;SDS011;68131;52.508;5.502;2023-07-30T05:07:24;5.70;;;1.08;;
78787;SDS011;68131;52.508;5.502;2023-07-30T05:09:53;5.90;;;1.08;;
78787;SDS011;68131;52.508;5.502;2023-07-30T05:12:23;2.72;;;1.10;;
78787;SDS011;68131;52.508;5.502;2023-07-30T05:14:57;2.05;;;0.80;;
78787;SDS011;68131;52.508;5.502;2023-07-30T05:17:31;5.35;;;1.13;;
78787;SDS011;68131;52.508;5.502;2023-07-30T05:20:01;4.35;;;1.02;;
78787;SDS011;68131;52.508;5.502;2023-07-30T05:22:30;2.67;;;0.95;;
78787;SDS011;68131;52.508;5.502;2023-07-30T05:24:59;6.32;;;1.38;;
78787;SDS011;68131;52.508;5.502;2023-07-30T05:27:28;5.13;;;0.80;;
78787;SDS011;68131;52.508;5.502;2023-07-30T05:29:58;8.23;;;0.90;;
78787;SDS011;68131;52.508;5.502;2023-07-30T05:32:31;3.28;;;0.90;;
78787;SDS011;68131;52.508;5.502;2023-07-30T05:35:03;3.67;;;1.17;;
78787;SDS011;68131;52.508;5.502;2023-07-30T05:37:33;2.65;;;1.75;;
78787;SDS011;68131;52.508;5.502;2023-07-30T05:40:03;2.92;;;0.93;;
78787;SDS011;68131;52.508;5.502;2023-07-30T05:42:33;2.97;;;1.15;;
78787;SDS011;68131;52.508;5.502;2023-07-30T05:45:03;3.70;;;1.38;;
78787;SDS011;68131;52.508;5.502;2023-07-30T05:47:36;3.05;;;1.38;;
78787;SDS011;68131;52.508;5.502;2023-07-30T05:50:06;2.22;;;0.90;;
78787;SDS011;68131;52.508;5.502;2023-07-30T05:52:36;2.10;;;0.93;;
78787;SDS011;68131;52.508;5.502;2023-07-30T05:55:06;5.30;;;1.05;;
78787;SDS011;68131;52.508;5.502;2023-07-30T05:57:36;7.93;;;1.30;;
78787;SDS011;68131;52.508;5.502;2023-07-30T06:00:06;4.05;;;0.85;;
78787;SDS011;68131;52.508;5.502;2023-07-30T06:02:41;5.50;;;0.95;;
78787;SDS011;68131;52.508;5.502;2023-07-30T06:05:10;5.97;;;1.45;;
78787;SDS011;68131;52.508;5.502;2023-07-30T06:07:40;4.60;;;1.50;;
78787;SDS011;68131;52.508;5.502;2023-07-30T06:10:09;4.93;;;0.98;;
78787;SDS011;68131;52.508;5.502;2023-07-30T06:12:38;4.70;;;1.13;;
78787;SDS011;68131;52.508;5.502;2023-07-30T06:15:09;5.18;;;0.80;;
78787;SDS011;68131;52.508;5.502;2023-07-30T06:17:41;9.27;;;1.33;;
78787;SDS011;68131;52.508;5.502;2023-07-30T06:20:12;5.10;;;1.08;;
78787;SDS011;68131;52.508;5.502;2023-07-30T06:22:43;4.90;;;1.15;;
78787;SDS011;68131;52.508;5.502;2023-07-30T06:25:12;10.73;;;1.48;;
78787;SDS011;68131;52.508;5.502;2023-07-30T06:27:41;4.57;;;0.80;;
78787;SDS011;68131;52.508;5.502;2023-07-30T06:30:11;4.80;;;0.73;;
78787;SDS011;68131;52.508;5.502;2023-07-30T06:32:43;4.28;;;0.93;;
78787;SDS011;68131;52.508;5.502;2023-07-30T06:35:13;2.50;;;0.95;;
78787;SDS011;68131;52.508;5.502;2023-07-30T06:37:42;4.78;;;0.85;;
78787;SDS011;68131;52.508;5.502;2023-07-30T06:40:14;3.05;;;1.17;;
78787;SDS011;68131;52.508;5.502;2023-07-30T06:42:43;4.85;;;1.00;;
78787;SDS011;68131;52.508;5.502;2023-07-30T06:45:19;2.22;;;1.02;;
78787;SDS011;68131;52.508;5.502;2023-07-30T06:47:51;2.88;;;1.13;;
78787;SDS011;68131;52.508;5.502;2023-07-30T06:50:20;6.22;;;1.20;;
78787;SDS011;68131;52.508;5.502;2023-07-30T06:52:49;3.75;;;0.95;;
78787;SDS011;68131;52.508;5.502;2023-07-30T06:55:18;8.57;;;1.48;;
78787;SDS011;68131;52.508;5.502;2023-07-30T06:57:49;3.22;;;0.70;;
78787;SDS011;68131;52.508;5.502;2023-07-30T07:00:18;3.75;;;1.05;;
78787;SDS011;68131;52.508;5.502;2023-07-30T07:02:51;4.57;;;1.00;;
78787;SDS011;68131;52.508;5.502;2023-07-30T07:05:20;5.75;;;0.75;;
78787;SDS011;68131;52.508;5.502;2023-07-30T07:07:50;8.45;;;1.98;;
78787;SDS011;68131;52.508;5.502;2023-07-30T07:10:19;6.45;;;1.10;;
78787;SDS011;68131;52.508;5.502;2023-07-30T07:12:48;5.32;;;1.00;;
78787;SDS011;68131;52.508;5.502;2023-07-30T07:15:17;4.18;;;1.13;;
78787;SDS011;68131;52.508;5.502;2023-07-30T07:17:47;3.45;;;1.25;;
78787;SDS011;68131;52.508;5.502;2023-07-30T07:20:19;3.50;;;1.17;;
78787;SDS011;68131;52.508;5.502;2023-07-30T07:22:50;4.88;;;1.42;;
78787;SDS011;68131;52.508;5.502;2023-07-30T07:25:19;5.25;;;1.30;;
78787;SDS011;68131;52.508;5.502;2023-07-30T07:27:48;6.60;;;1.50;;
78787;SDS011;68131;52.508;5.502;2023-07-30T07:30:17;3.30;;;1.20;;
78787;SDS011;68131;52.508;5.502;2023-07-30T07:32:47;2.85;;;1.40;;
78787;SDS011;68131;52.508;5.502;2023-07-30T07:35:20;3.42;;;1.25;;
78787;SDS011;68131;52.508;5.502;2023-07-30T07:37:50;7.07;;;1.50;;
78787;SDS011;68131;52.508;5.502;2023-07-30T07:40:19;6.07;;;1.58;;
78787;SDS011;68131;52.508;5.502;2023-07-30T07:42:48;4.00;;;1.17;;
78787;SDS011;68131;52.508;5.502;2023-07-30T07:45:18;3.03;;;0.90;;
78787;SDS011;68131;52.508;5.502;2023-07-30T07:47:47;3.80;;;1.00;;
78787;SDS011;68131;52.508;5.502;2023-07-30T07:50:16;2.42;;;0.88;;
78787;SDS011;68131;52.508;5.502;2023-07-30T07:52:48;3.92;;;0.98;;
78787;SDS011;68131;52.508;5.502;2023-07-30T07:55:17;2.33;;;0.88;;
78787;SDS011;68131;52.508;5.502;2023-07-30T07:57:46;2.03;;;0.57;;
78787;SDS011;68131;52.508;5.502;2023-07-30T08:00:16;6.25;;;1.10;;
78787;SDS011;68131;52.508;5.502;2023-07-30T08:02:46;3.00;;;0.93;;
78787;SDS011;68131;52.508;5.502;2023-07-30T08:05:15;3.22;;;1.60;;
78787;SDS011;68131;52.508;5.502;2023-07-30T08:07:50;4.78;;;1.00;;
78787;SDS011;68131;52.508;5.502;2023-07-30T08:10:19;3.88;;;0.73;;
78787;SDS011;68131;52.508;5.502;2023-07-30T08:12:48;5.30;;;1.15;;
78787;SDS011;68131;52.508;5.502;2023-07-30T08:15:18;2.50;;;0.90;;
78787;SDS011;68131;52.508;5.502;2023-07-30T08:17:50;3.22;;;1.02;;
78787;SDS011;68131;52.508;5.502;2023-07-30T08:20:19;4.80;;;1.23;;
78787;SDS011;68131;52.508;5.502;2023-07-30T08:22:51;5.53;;;0.68;;
78787;SDS011;68131;52.508;5.502;2023-07-30T08:25:20;3.38;;;0.80;;
78787;SDS011;68131;52.508;5.502;2023-07-30T08:27:53;6.72;;;1.23;;
78787;SDS011;68131;52.508;5.502;2023-07-30T08:30:22;1.63;;;0.75;;
78787;SDS011;68131;52.508;5.502;2023-07-30T08:32:51;3.97;;;0.88;;
78787;SDS011;68131;52.508;5.502;2023-07-30T08:35:20;3.50;;;0.82;;
78787;SDS011;68131;52.508;5.502;2023-07-30T08:37:52;2.17;;;0.93;;
78787;SDS011;68131;52.508;5.502;2023-07-30T08:40:22;2.90;;;1.00;;
78787;SDS011;68131;52.508;5.502;2023-07-30T08:42:51;2.05;;;0.80;;
78787;SDS011;68131;52.508;5.502;2023-07-30T08:45:21;2.53;;;0.70;;
78787;SDS011;68131;52.508;5.502;2023-07-30T08:47:50;1.30;;;0.73;;
78787;SDS011;68131;52.508;5.502;2023-07-30T08:50:20;1.70;;;0.80;;
78787;SDS011;68131;52.508;5.502;2023-07-30T08:52:52;2.30;;;0.32;;
78787;SDS011;68131;52.508;5.502;2023-07-30T08:55:22;5.40;;;0.93;;
78787;SDS011;68131;52.508;5.502;2023-07-30T08:57:55;2.70;;;0.88;;
78787;SDS011;68131;52.508;5.502;2023-07-30T09:00:27;2.35;;;0.43;;
78787;SDS011;68131;52.508;5.502;2023-07-30T09:03:02;2.15;;;0.40;;
78787;SDS011;68131;52.508;5.502;2023-07-30T09:05:32;0.98;;;0.20;;
78787;SDS011;68131;52.508;5.502;2023-07-30T09:08:04;1.85;;;1.42;;
78787;SDS011;68131;52.508;5.502;2023-07-30T09:10:35;2.75;;;0.73;;
78787;SDS011;68131;52.508;5.502;2023-07-30T09:13:04;2.60;;;0.60;;
78787;SDS011;68131;52.508;5.502;2023-07-30T09:15:34;1.13;;;0.43;;
78787;SDS011;68131;52.508;5.502;2023-07-30T09:18:05;0.20;;;0.20;;
78787;SDS011;68131;52.508;5.502;2023-07-30T09:20:38;0.77;;;0.40;;
78787;SDS011;68131;52.508;5.502;2023-07-30T09:23:08;2.28;;;0.50;;
78787;SDS011;68131;52.508;5.502;2023-07-30T09:25:38;1.92;;;0.35;;
78787;SDS011;68131;52.508;5.502;2023-07-30T09:28:07;1.35;;;0.50;;
78787;SDS011;68131;52.508;5.502;2023-07-30T09:30:38;3.53;;;0.60;;
78787;SDS011;68131;52.508;5.502;2023-07-30T09:33:07;5.65;;;0.93;;
78787;SDS011;68131;52.508;5.502;2023-07-30T09:35:38;1.58;;;0.30;;
78787;SDS011;68131;52.508;5.502;2023-07-30T09:38:10;1.58;;;0.40;;
78787;SDS011;68131;52.508;5.502;2023-07-30T09:40:42;2.22;;;0.30;;
78787;SDS011;68131;52.508;5.502;2023-07-30T09:43:15;1.65;;;0.35;;
78787;SDS011;68131;52.508;5.502;2023-07-30T09:45:44;3.35;;;0.80;;
78787;SDS011;68131;52.508;5.502;2023-07-30T09:48:14;3.15;;;0.70;;
78787;SDS011;68131;52.508;5.502;2023-07-30T09:50:44;1.73;;;0.35;;
78787;SDS011;68131;52.508;5.502;2023-07-30T09:53:16;2.67;;;0.63;;
78787;SDS011;68131;52.508;5.502;2023-07-30T09:55:46;1.58;;;0.40;;
78787;SDS011;68131;52.508;5.502;2023-07-30T09:58:16;2.42;;;0.70;;
78787;SDS011;68131;52.508;5.502;2023-07-30T10:00:47;2.10;;;0.57;;
78787;SDS011;68131;52.508;5.502;2023-07-30T10:03:18;4.15;;;0.50;;
78787;SDS011;68131;52.508;5.502;2023-07-30T10:05:48;1.65;;;0.60;;
78787;SDS011;68131;52.508;5.502;2023-07-30T10:08:23;2.47;;;0.35;;
78787;SDS011;68131;52.508;5.502;2023-07-30T10:10:54;1.05;;;0.50;;
78787;SDS011;68131;52.508;5.502;2023-07-30T10:13:26;1.83;;;0.50;;
78787;SDS011;68131;52.508;5.502;2023-07-30T10:15:55;1.13;;;0.65;;
78787;SDS011;68131;52.508;5.502;2023-07-30T10:18:27;5.15;;;0.73;;
78787;SDS011;68131;52.508;5.502;2023-07-30T10:21:02;3.13;;;0.63;;
78787;SDS011;68131;52.508;5.502;2023-07-30T10:23:35;2.83;;;0.50;;
78787;SDS011;68131;52.508;5.502;2023-07-30T10:26:13;4.22;;;0.65;;
78787;SDS011;68131;52.508;5.502;2023-07-30T10:28:44;1.42;;;0.50;;
78787;SDS011;68131;52.508;5.502;2023-07-30T10:31:14;1.52;;;0.50;;
78787;SDS011;68131;52.508;5.502;2023-07-30T10:33:45;3.03;;;0.50;;
78787;SDS011;68131;52.508;5.502;2023-07-30T10:36:17;2.08;;;0.70;;
78787;SDS011;68131;52.508;5.502;2023-07-30T10:38:49;0.43;;;0.28;;
78787;SDS011;68131;52.508;5.502;2023-07-30T10:41:20;2.42;;;0.43;;
78787;SDS011;68131;52.508;5.502;2023-07-30T10:43:50;2.17;;;0.43;;
78787;SDS011;68131;52.508;5.502;2023-07-30T10:46:19;4.03;;;0.73;;
78787;SDS011;68131;52.508;5.502;2023-07-30T10:48:50;3.72;;;0.47;;
78787;SDS011;68131;52.508;5.502;2023-07-30T10:51:19;2.30;;;0.40;;
78787;SDS011;68131;52.508;5.502;2023-07-30T10:53:51;2.58;;;0.47;;
78787;SDS011;68131;52.508;5.502;2023-07-30T10:56:21;1.48;;;0.32;;
78787;SDS011;68131;52.508;5.502;2023-07-30T10:58:52;3.80;;;0.47;;
78787;SDS011;68131;52.508;5.502;2023-07-30T11:01:24;0.80;;;0.43;;
78787;SDS011;68131;52.508;5.502;2023-07-30T11:03:54;3.10;;;0.60;;
78787;SDS011;68131;52.508;5.502;2023-07-30T11:06:26;3.72;;;0.68;;
78787;SDS011;68131;52.508;5.502;2023-07-30T11:08:58;2.03;;;0.77;;
78787;SDS011;68131;52.508;5.502;2023-07-30T11:11:29;3.00;;;0.40;;
78787;SDS011;68131;52.508;5.502;2023-07-30T11:14:01;2.92;;;0.30;;
78787;SDS011;68131;52.508;5.502;2023-07-30T11:16:30;1.15;;;0.47;;
78787;SDS011;68131;52.508;5.502;2023-07-30T11:19:00;1.52;;;0.30;;
78787;SDS011;68131;52.508;5.502;2023-07-30T11:21:35;1.30;;;0.40;;
78787;SDS011;68131;52.508;5.502;2023-07-30T11:24:18;1.17;;;0.32;;
78787;SDS011;68131;52.508;5.502;2023-07-30T11:26:56;0.77;;;0.43;;
78787;SDS011;68131;52.508;5.502;2023-07-30T11:29:26;1.77;;;0.77;;
78787;SDS011;68131;52.508;5.502;2023-07-30T11:31:58;0.68;;;0.25;;
78787;SDS011;68131;52.508;5.502;2023-07-30T11:34:28;2.08;;;0.32;;
78787;SDS011;68131;52.508;5.502;2023-07-30T11:37:01;1.55;;;0.52;;
78787;SDS011;68131;52.508;5.502;2023-07-30T11:39:34;2.47;;;0.70;;
78787;SDS011;68131;52.508;5.502;2023-07-30T11:42:03;1.15;;;0.50;;
78787;SDS011;68131;52.508;5.502;2023-07-30T11:44:34;1.23;;;0.40;;
78787;SDS011;68131;52.508;5.502;2023-07-30T11:47:05;3.38;;;0.57;;
78787;SDS011;68131;52.508;5.502;2023-07-30T11:49:34;3.17;;;0.40;;
78787;SDS011;68131;52.508;5.502;2023-07-30T11:52:04;2.70;;;0.57;;
78787;SDS011;68131;52.508;5.502;2023-07-30T11:54:37;1.48;;;0.32;;
78787;SDS011;68131;52.508;5.502;2023-07-30T11:57:06;2.22;;;0.40;;
78787;SDS011;68131;52.508;5.502;2023-07-30T11:59:35;1.83;;;0.77;;
78787;SDS011;68131;52.508;5.502;2023-07-30T12:02:07;1.25;;;0.50;;
78787;SDS011;68131;52.508;5.502;2023-07-30T12:04:45;2.40;;;0.55;;
78787;SDS011;68131;52.508;5.502;2023-07-30T12:07:21;1.45;;;0.32;;
78787;SDS011;68131;52.508;5.502;2023-07-30T12:09:54;2.95;;;0.40;;
78787;SDS011;68131;52.508;5.502;2023-07-30T12:12:34;2.45;;;0.40;;
78787;SDS011;68131;52.508;5.502;2023-07-30T12:15:09;1.92;;;0.50;;
78787;SDS011;68131;52.508;5.502;2023-07-30T12:17:39;1.40;;;0.43;;
78787;SDS011;68131;52.508;5.502;2023-07-30T12:20:10;1.70;;;0.30;;
78787;SDS011;68131;52.508;5.502;2023-07-30T12:22:40;3.13;;;0.60;;
78787;SDS011;68131;52.508;5.502;2023-07-30T12:25:12;2.05;;;0.50;;
78787;SDS011;68131;52.508;5.502;2023-07-30T12:27:42;3.25;;;0.60;;
78787;SDS011;68131;52.508;5.502;2023-07-30T12:30:16;1.05;;;0.50;;
78787;SDS011;68131;52.508;5.502;2023-07-30T12:32:45;1.45;;;0.30;;
78787;SDS011;68131;52.508;5.502;2023-07-30T12:35:14;1.80;;;0.47;;
78787;SDS011;68131;52.508;5.502;2023-07-30T12:37:44;3.28;;;0.30;;
78787;SDS011;68131;52.508;5.502;2023-07-30T12:40:16;2.67;;;0.40;;
78787;SDS011;68131;52.508;5.502;2023-07-30T12:42:48;2.47;;;0.82;;
78787;SDS011;68131;52.508;5.502;2023-07-30T12:45:17;1.27;;;0.35;;
78787;SDS011;68131;52.508;5.502;2023-07-30T12:47:47;2.50;;;0.30;;
78787;SDS011;68131;52.508;5.502;2023-07-30T12:50:16;1.15;;;0.30;;
78787;SDS011;68131;52.508;5.502;2023-07-30T12:52:47;3.03;;;0.40;;
78787;SDS011;68131;52.508;5.502;2023-07-30T12:55:19;2.00;;;0.60;;
78787;SDS011;68131;52.508;5.502;2023-07-30T12:57:48;1.20;;;0.25;;
78787;SDS011;68131;52.508;5.502;2023-07-30T13:00:17;1.95;;;0.30;;
78787;SDS011;68131;52.508;5.502;2023-07-30T13:02:52;3.13;;;0.30;;
78787;SDS011;68131;52.508;5.502;2023-07-30T13:05:22;1.38;;;0.25;;
78787;SDS011;68131;52.508;5.502;2023-07-30T13:07:52;3.60;;;0.40;;
78787;SDS011;68131;52.508;5.502;2023-07-30T13:10:23;1.20;;;0.20;;
78787;SDS011;68131;52.508;5.502;2023-07-30T13:12:55;0.95;;;0.28;;
78787;SDS011;68131;52.508;5.502;2023-07-30T13:15:27;1.25;;;0.25;;
78787;SDS011;68131;52.508;5.502;2023-07-30T13:17:56;1.45;;;0.30;;
78787;SDS011;68131;52.508;5.502;2023-07-30T13:20:27;4.72;;;0.52;;
78787;SDS011;68131;52.508;5.502;2023-07-30T13:22:56;1.25;;;0.30;;
78787;SDS011;68131;52.508;5.502;2023-07-30T13:25:28;0.45;;;0.22;;
78787;SDS011;68131;52.508;5.502;2023-07-30T13:28:00;2.70;;;0.10;;
78787;SDS011;68131;52.508;5.502;2023-07-30T13:30:32;2.53;;;0.40;;
78787;SDS011;68131;52.508;5.502;2023-07-30T13:33:01;2.70;;;0.52;;
78787;SDS011;68131;52.508;5.502;2023-07-30T13:35:34;1.10;;;0.43;;
78787;SDS011;68131;52.508;5.502;2023-07-30T13:38:04;0.73;;;0.30;;
78787;SDS011;68131;52.508;5.502;2023-07-30T13:40:35;0.70;;;0.40;;
78787;SDS011;68131;52.508;5.502;2023-07-30T13:43:04;0.50;;;0.13;;
78787;SDS011;68131;52.508;5.502;2023-07-30T13:45:34;3.42;;;0.50;;
78787;SDS011;68131;52.508;5.502;2023-07-30T13:48:03;0.95;;;0.30;;
78787;SDS011;68131;52.508;5.502;2023-07-30T13:50:32;1.48;;;0.30;;
78787;SDS011;68131;52.508;5.502;2023-07-30T13:53:05;0.55;;;0.30;;
78787;SDS011;68131;52.508;5.502;2023-07-30T13:55:36;1.73;;;0.20;;
78787;SDS011;68131;52.508;5.502;2023-07-30T13:58:06;1.25;;;0.38;;
78787;SDS011;68131;52.508;5.502;2023-07-30T14:00:35;1.00;;;0.20;;
78787;SDS011;68131;52.508;5.502;2023-07-30T14:03:04;0.30;;;0.20;;
78787;SDS011;68131;52.508;5.502;2023-07-30T14:05:34;0.38;;;0.10;;
78787;SDS011;68131;52.508;5.502;2023-07-30T14:08:05;1.13;;;0.30;;
78787;SDS011;68131;52.508;5.502;2023-07-30T14:10:37;2.22;;;0.30;;
78787;SDS011;68131;52.508;5.502;2023-07-30T14:13:06;4.18;;;0.80;;
78787;SDS011;68131;52.508;5.502;2023-07-30T14:15:35;1.55;;;0.47;;
78787;SDS011;68131;52.508;5.502;2023-07-30T14:18:04;1.38;;;0.32;;
78787;SDS011;68131;52.508;5.502;2023-07-30T14:20:33;1.35;;;0.45;;
78787;SDS011;68131;52.508;5.502;2023-07-30T14:23:03;0.80;;;0.30;;
78787;SDS011;68131;52.508;5.502;2023-07-30T14:25:33;3.42;;;0.50;;
78787;SDS011;68131;52.508;5.502;2023-07-30T14:28:04;0.98;;;0.38;;
78787;SDS011;68131;52.508;5.502;2023-07-30T14:30:34;0.70;;;0.30;;
78787;SDS011;68131;52.508;5.502;2023-07-30T14:33:09;0.60;;;0.40;;
78787;SDS011;68131;52.508;5.502;2023-07-30T14:35:39;2.08;;;0.32;;
78787;SDS011;68131;52.508;5.502;2023-07-30T14:38:08;0.82;;;0.38;;
78787;SDS011;68131;52.508;5.502;2023-07-30T14:40:38;4.93;;;0.40;;
78787;SDS011;68131;52.508;5.502;2023-07-30T14:43:10;2.17;;;0.35;;
78787;SDS011;68131;52.508;5.502;2023-07-30T14:45:39;1.70;;;0.20;;
78787;SDS011;68131;52.508;5.502;2023-07-30T14:48:08;2.33;;;0.30;;
78787;SDS011;68131;52.508;5.502;2023-07-30T14:50:38;0.65;;;0.55;;
78787;SDS011;68131;52.508;5.502;2023-07-30T14:53:07;1.02;;;0.30;;
78787;SDS011;68131;52.508;5.502;2023-07-30T14:55:36;2.85;;;0.47;;
78787;SDS011;68131;52.508;5.502;2023-07-30T14:58:06;3.03;;;0.20;;
78787;SDS011;68131;52.508;5.502;2023-07-30T15:00:39;1.00;;;0.30;;
78787;SDS011;68131;52.508;5.502;2023-07-30T15:03:09;1.13;;;0.50;;
78787;SDS011;68131;52.508;5.502;2023-07-30T15:05:38;0.55;;;0.30;;
78787;SDS011;68131;52.508;5.502;2023-07-30T15:08:08;1.48;;;0.50;;